createdAt,value
2019-03-23T00:02:23.887Z,8.93
2019-03-23T00:04:54.023Z,8.80
2019-03-23T00:07:23.932Z,8.87
2019-03-23T00:09:53.965Z,8.71
2019-03-23T00:12:23.951Z,8.76
2019-03-23T00:14:53.989Z,8.67
2019-03-23T00:17:24.015Z,8.67
2019-03-23T00:19:53.949Z,8.55
2019-03-23T00:22:23.964Z,8.55
2019-03-23T00:24:54.077Z,8.50
2019-03-23T00:27:24.081Z,8.50
2019-03-23T00:29:53.989Z,8.47
2019-03-23T00:32:24.301Z,8.44
2019-03-23T00:34:54.360Z,8.36
2019-03-23T00:37:24.298Z,8.35
2019-03-23T00:39:54.918Z,8.34
2019-03-23T00:42:24.802Z,8.33
2019-03-23T00:44:54.842Z,8.31
2019-03-23T00:47:24.823Z,8.24
2019-03-23T00:49:54.884Z,8.38
2019-03-23T00:52:24.775Z,8.27
2019-03-23T00:54:54.901Z,8.19
2019-03-23T00:57:24.898Z,8.21
2019-03-23T00:59:54.983Z,8.17
2019-03-23T01:02:25.033Z,8.12
2019-03-23T01:04:54.955Z,8.05
2019-03-23T01:07:25.058Z,8.02
2019-03-23T01:09:55.109Z,7.99
2019-03-23T01:12:25.114Z,8.01
2019-03-23T01:14:55.133Z,7.92
2019-03-23T01:17:25.233Z,7.98
2019-03-23T01:19:55.141Z,8.02
2019-03-23T01:22:25.297Z,7.93
2019-03-23T01:24:55.285Z,7.88
2019-03-23T01:27:25.578Z,7.87
2019-03-23T01:29:55.467Z,7.89
2019-03-23T01:32:25.574Z,7.85
2019-03-23T01:34:55.666Z,7.88
2019-03-23T01:37:25.679Z,7.79
2019-03-23T01:39:55.698Z,7.62
2019-03-23T01:42:25.713Z,7.68
2019-03-23T01:44:55.856Z,7.56
2019-03-23T01:47:25.857Z,7.55
2019-03-23T01:49:55.800Z,7.49
2019-03-23T01:52:25.737Z,7.43
2019-03-23T01:54:56.156Z,7.45
2019-03-23T01:57:26.089Z,7.31
2019-03-23T01:59:55.980Z,7.25
2019-03-23T02:02:25.953Z,7.18
2019-03-23T02:04:55.875Z,7.11
2019-03-23T02:07:25.832Z,7.15
2019-03-23T02:09:56.013Z,7.15
2019-03-23T02:12:25.967Z,7.16
2019-03-23T02:14:55.886Z,7.15
2019-03-23T02:17:26.304Z,7.19
2019-03-23T02:19:56.337Z,7.23
2019-03-23T02:22:26.334Z,7.24
2019-03-23T02:24:56.399Z,7.20
2019-03-23T02:27:26.456Z,7.20
2019-03-23T02:29:56.396Z,7.16
2019-03-23T02:32:26.521Z,7.13
2019-03-23T02:34:56.671Z,7.07
2019-03-23T02:37:27.935Z,7.05
2019-03-23T02:39:58.419Z,7.07
2019-03-23T02:42:28.501Z,6.95
2019-03-23T02:44:58.645Z,6.94
2019-03-23T02:47:28.988Z,6.97
2019-03-23T02:49:59.002Z,6.90
2019-03-23T02:52:28.998Z,6.85
2019-03-23T02:54:59.014Z,6.79
2019-03-23T02:57:29.054Z,6.67
2019-03-23T02:59:59.072Z,6.69
2019-03-23T03:02:29.127Z,6.61
2019-03-23T03:04:59.274Z,6.58
2019-03-23T03:07:41.175Z,6.58
2019-03-23T03:10:01.054Z,6.57
2019-03-23T03:12:31.114Z,6.61
2019-03-23T03:15:01.391Z,6.57
2019-03-23T03:17:31.335Z,6.60
2019-03-23T03:20:01.249Z,6.51
2019-03-23T03:22:31.241Z,6.47
2019-03-23T03:25:01.290Z,6.42
2019-03-23T03:27:31.294Z,6.41
2019-03-23T03:30:01.336Z,6.35
2019-03-23T03:32:31.433Z,6.36
2019-03-23T03:35:01.698Z,6.26
2019-03-23T03:37:31.658Z,6.30
2019-03-23T03:40:01.601Z,6.35
2019-03-23T03:42:31.636Z,6.38
2019-03-23T03:45:01.569Z,6.22
2019-03-23T03:47:31.550Z,6.12
2019-03-23T03:50:01.667Z,6.03
2019-03-23T03:52:32.132Z,6.05
2019-03-23T03:55:02.124Z,6.15
2019-03-23T03:57:32.186Z,6.20
2019-03-23T04:00:02.174Z,6.22
2019-03-23T04:02:32.253Z,6.22
2019-03-23T04:05:02.207Z,6.19
2019-03-23T04:07:32.132Z,6.23
2019-03-23T04:10:02.133Z,6.18
2019-03-23T04:12:32.118Z,6.14
2019-03-23T04:15:02.071Z,6.09
2019-03-23T04:17:32.043Z,6.00
2019-03-23T04:20:02.004Z,5.97
2019-03-23T04:22:32.015Z,6.02
2019-03-23T04:25:02.065Z,5.90
2019-03-23T04:27:31.947Z,5.95
2019-03-23T04:30:03.491Z,5.92
2019-03-23T04:32:33.435Z,5.93
2019-03-23T04:35:03.710Z,5.90
2019-03-23T04:37:33.820Z,5.78
2019-03-23T04:40:04.053Z,5.82
2019-03-23T04:42:34.262Z,5.78
2019-03-23T04:45:04.595Z,5.83
2019-03-23T04:47:34.600Z,5.85
2019-03-23T04:50:04.803Z,5.78
2019-03-23T04:52:34.761Z,5.71
2019-03-23T04:55:05.663Z,5.78
2019-03-23T04:57:35.559Z,5.78
2019-03-23T05:00:06.556Z,5.71
2019-03-23T05:02:36.498Z,5.71
2019-03-23T05:05:07.151Z,5.59
2019-03-23T05:07:37.267Z,5.58
2019-03-23T05:10:07.721Z,5.59
2019-03-23T05:12:37.675Z,5.40
2019-03-23T05:15:08.281Z,5.47
2019-03-23T05:17:38.200Z,5.49
2019-03-23T05:20:08.628Z,5.53
2019-03-23T05:22:38.545Z,5.61
2019-03-23T05:25:10.445Z,5.62
2019-03-23T05:27:41.560Z,5.68
2019-03-23T05:30:11.902Z,5.71
2019-03-23T05:32:41.810Z,5.71
2019-03-23T05:35:12.034Z,5.62
2019-03-23T05:37:41.966Z,5.71
2019-03-23T05:40:11.975Z,5.72
2019-03-23T05:42:41.925Z,5.78
2019-03-23T05:45:12.337Z,5.70
2019-03-23T05:47:42.468Z,5.76
2019-03-23T05:50:12.741Z,5.67
2019-03-23T05:52:42.700Z,5.70
2019-03-23T05:55:13.081Z,5.82
2019-03-23T05:57:44.816Z,5.89
2019-03-23T06:00:17.771Z,5.76
2019-03-23T06:02:47.737Z,5.80
2019-03-23T06:05:17.875Z,5.85
2019-03-23T06:07:47.869Z,5.88
2019-03-23T06:10:18.234Z,5.97
2019-03-23T06:12:48.433Z,5.91
2019-03-23T06:15:18.473Z,6.07
2019-03-23T06:17:48.578Z,6.15
2019-03-23T06:20:18.685Z,6.30
2019-03-23T06:22:48.849Z,6.32
2019-03-23T06:25:18.766Z,6.37
2019-03-23T06:27:48.809Z,6.51
2019-03-23T06:30:18.853Z,6.43
2019-03-23T06:32:48.916Z,6.59
2019-03-23T06:35:19.014Z,6.69
2019-03-23T06:37:49.275Z,6.84
2019-03-23T06:40:19.252Z,6.86
2019-03-23T06:42:59.167Z,6.82
2019-03-23T06:45:21.009Z,6.95
2019-03-23T06:47:50.994Z,7.05
2019-03-23T06:50:21.155Z,7.20
2019-03-23T06:52:51.094Z,7.29
2019-03-23T06:55:21.344Z,7.46
2019-03-23T06:57:51.325Z,7.57
2019-03-23T07:00:21.287Z,7.56
2019-03-23T07:02:51.376Z,7.59
2019-03-23T07:05:21.334Z,7.87
2019-03-23T07:07:51.412Z,7.93
2019-03-23T07:10:21.408Z,8.02
2019-03-23T07:12:51.414Z,8.06
2019-03-23T07:15:21.360Z,8.18
2019-03-23T07:17:51.303Z,8.36
2019-03-23T07:20:21.231Z,8.41
2019-03-23T07:22:51.211Z,8.87
2019-03-23T07:25:21.344Z,8.99
2019-03-23T07:27:51.398Z,8.99
2019-03-23T07:30:21.454Z,9.08
2019-03-23T07:32:51.481Z,9.27
2019-03-23T07:35:21.441Z,9.27
2019-03-23T07:37:51.545Z,9.48
2019-03-23T07:40:21.802Z,9.48
2019-03-23T07:42:51.731Z,9.97
2019-03-23T07:45:21.685Z,9.94
2019-03-23T07:47:51.812Z,9.95
2019-03-23T07:50:21.829Z,9.95
2019-03-23T07:52:51.849Z,10.27
2019-03-23T07:55:21.947Z,10.50
2019-03-23T07:57:51.898Z,10.50
2019-03-23T08:00:22.276Z,10.45
2019-03-23T08:02:52.316Z,10.68
2019-03-23T08:05:22.312Z,10.72
2019-03-23T08:07:52.492Z,11.01
2019-03-23T08:10:32.740Z,10.96
2019-03-23T08:13:02.822Z,11.23
2019-03-23T08:15:32.955Z,11.13
2019-03-23T08:18:03.062Z,11.22
2019-03-23T08:20:33.108Z,11.43
2019-03-23T08:23:03.140Z,11.50
2019-03-23T08:25:33.110Z,11.60
2019-03-23T08:28:03.067Z,11.70
2019-03-23T08:30:33.068Z,11.77
2019-03-23T08:33:03.041Z,11.82
2019-03-23T08:35:32.994Z,11.95
2019-03-23T08:38:02.983Z,12.01
2019-03-23T08:40:32.940Z,12.02
2019-03-23T08:43:03.112Z,12.30
2019-03-23T08:45:33.236Z,12.46
2019-03-23T08:48:03.150Z,12.42
2019-03-23T08:50:33.407Z,12.27
2019-03-23T08:53:03.397Z,12.46
2019-03-23T08:55:33.412Z,12.46
2019-03-23T08:58:03.351Z,12.23
2019-03-23T09:00:33.462Z,12.43
2019-03-23T09:03:03.838Z,12.70
2019-03-23T09:05:34.123Z,12.85
2019-03-23T09:08:04.171Z,13.09
2019-03-23T09:10:34.161Z,13.09
2019-03-23T09:13:04.100Z,13.36
2019-03-23T09:15:34.106Z,13.39
2019-03-23T09:18:04.131Z,13.32
2019-03-23T09:20:34.151Z,13.13
2019-03-23T09:23:04.145Z,13.38
2019-03-23T09:25:34.063Z,13.51
2019-03-23T09:28:04.083Z,13.64
2019-03-23T09:30:34.218Z,13.44
2019-03-23T09:33:04.183Z,13.46
2019-03-23T09:35:34.208Z,13.57
2019-03-23T09:38:04.262Z,13.53
2019-03-23T09:40:34.368Z,13.77
2019-03-23T09:43:04.578Z,13.95
2019-03-23T09:45:34.745Z,14.03
2019-03-23T09:48:04.645Z,14.05
2019-03-23T09:50:34.583Z,14.28
2019-03-23T09:53:04.597Z,14.48
2019-03-23T09:55:34.631Z,14.76
2019-03-23T09:58:04.748Z,14.79
2019-03-23T10:00:34.828Z,14.90
2019-03-23T10:03:04.826Z,15.01
2019-03-23T10:05:34.831Z,14.83
2019-03-23T10:08:04.978Z,14.98
2019-03-23T10:10:34.968Z,15.15
2019-03-23T10:13:04.924Z,15.43
2019-03-23T10:15:34.892Z,15.21
2019-03-23T10:18:05.154Z,15.30
2019-03-23T10:20:35.160Z,15.16
2019-03-23T10:23:05.123Z,15.48
2019-03-23T10:25:35.966Z,15.55
2019-03-23T10:28:05.959Z,15.67
2019-03-23T10:30:35.953Z,15.74
2019-03-23T10:33:05.994Z,15.81
2019-03-23T10:35:35.973Z,15.98
2019-03-23T10:38:06.197Z,15.87
2019-03-23T10:40:36.266Z,15.87
2019-03-23T10:43:06.368Z,16.07
2019-03-23T10:45:44.055Z,16.05
2019-03-23T10:48:08.034Z,16.06
2019-03-23T10:50:38.311Z,16.22
2019-03-23T10:53:08.231Z,16.49
2019-03-23T10:55:38.172Z,16.44
2019-03-23T10:58:08.151Z,16.44
2019-03-23T11:00:38.059Z,16.44
2019-03-23T11:03:08.058Z,16.48
2019-03-23T11:05:38.045Z,16.56
2019-03-23T11:08:08.081Z,16.56
2019-03-23T11:10:41.921Z,16.78
2019-03-23T11:13:10.074Z,16.87
2019-03-23T11:15:39.987Z,17.09
2019-03-23T11:18:09.918Z,17.26
2019-03-23T11:20:39.890Z,17.42
2019-03-23T11:23:09.826Z,17.24
2019-03-23T11:25:40.043Z,17.16
2019-03-23T11:28:09.965Z,17.22
2019-03-23T11:30:40.171Z,17.31
2019-03-23T11:33:10.165Z,17.25
2019-03-23T11:35:40.089Z,17.46
2019-03-23T11:38:10.126Z,17.64
2019-03-23T11:40:40.321Z,17.88
2019-03-23T11:43:10.389Z,17.67
2019-03-23T11:45:40.658Z,17.84
2019-03-23T11:48:10.725Z,17.59
2019-03-23T11:50:40.703Z,17.72
2019-03-23T11:53:10.919Z,18.15
2019-03-23T11:55:41.035Z,18.27
2019-03-23T11:58:11.253Z,18.69
2019-03-23T12:00:41.307Z,19.08
2019-03-23T12:03:11.245Z,19.24
2019-03-23T12:05:41.190Z,19.16
2019-03-23T12:08:11.125Z,19.15
2019-03-23T12:10:41.247Z,19.48
2019-03-23T12:13:11.364Z,20.02
2019-03-23T12:15:41.425Z,20.63
2019-03-23T12:18:11.548Z,21.00
2019-03-23T12:20:41.645Z,21.45
2019-03-23T12:23:11.776Z,21.43
2019-03-23T12:25:41.851Z,22.07
2019-03-23T12:28:11.879Z,22.95
2019-03-23T12:30:41.913Z,22.46
2019-03-23T12:33:11.977Z,22.89
2019-03-23T12:35:41.962Z,22.24
2019-03-23T12:38:12.162Z,22.97
2019-03-23T12:40:42.401Z,22.69
2019-03-23T12:43:12.521Z,23.17
2019-03-23T12:45:42.572Z,23.16
2019-03-23T12:48:12.688Z,23.64
2019-03-23T12:50:42.708Z,24.21
2019-03-23T12:53:12.686Z,24.29
2019-03-23T12:55:42.876Z,22.68
2019-03-23T12:58:12.866Z,23.59
2019-03-23T13:00:42.929Z,25.23
2019-03-23T13:03:13.094Z,26.40
2019-03-23T13:05:43.115Z,26.80
2019-03-23T13:08:13.074Z,26.87
2019-03-23T13:10:43.077Z,26.39
2019-03-23T13:13:13.705Z,26.55
2019-03-23T13:15:43.613Z,27.05
2019-03-23T13:18:13.707Z,26.80
2019-03-23T13:20:43.923Z,25.85
2019-03-23T13:23:13.819Z,26.36
2019-03-23T13:25:44.081Z,26.65
2019-03-23T13:28:14.031Z,27.09
2019-03-23T13:30:44.044Z,28.24
2019-03-23T13:33:13.955Z,27.87
2019-03-23T13:35:44.154Z,26.01
2019-03-23T13:38:14.071Z,24.67
2019-03-23T13:40:44.146Z,27.58
2019-03-23T13:43:14.518Z,28.09
2019-03-23T13:45:44.618Z,27.13
2019-03-23T13:48:14.802Z,26.77
2019-03-23T13:50:44.740Z,26.03
2019-03-23T13:53:14.859Z,26.98
2019-03-23T13:55:44.983Z,28.21
2019-03-23T13:58:15.570Z,29.33
2019-03-23T14:00:45.623Z,29.85
2019-03-23T14:03:15.663Z,30.78
2019-03-23T14:05:45.838Z,28.26
2019-03-23T14:08:15.793Z,27.84
2019-03-23T14:10:46.089Z,27.06
2019-03-23T14:13:16.069Z,26.40
2019-03-23T14:15:45.978Z,26.42
2019-03-23T14:18:17.470Z,26.45
2019-03-23T14:20:47.867Z,27.54
2019-03-23T14:23:18.018Z,26.06
2019-03-23T14:25:48.070Z,24.95
2019-03-23T14:28:18.079Z,23.97
2019-03-23T14:30:48.213Z,23.31
2019-03-23T14:33:18.201Z,23.22
2019-03-23T14:35:48.143Z,22.13
2019-03-23T14:38:18.427Z,22.01
2019-03-23T14:40:48.473Z,22.19
2019-03-23T14:43:18.533Z,21.15
2019-03-23T14:45:48.505Z,21.14
2019-03-23T14:48:19.723Z,21.03
2019-03-23T14:51:06.221Z,20.25
2019-03-23T14:53:36.236Z,20.37
2019-03-23T14:56:06.229Z,20.41
2019-03-23T14:58:36.216Z,20.27
2019-03-23T15:01:06.248Z,20.17
2019-03-23T15:03:36.322Z,20.19
2019-03-23T15:06:06.385Z,20.25
2019-03-23T15:08:36.409Z,19.97
2019-03-23T15:11:06.419Z,19.82
2019-03-23T15:13:36.385Z,19.93
2019-03-23T15:16:06.372Z,19.98
2019-03-23T15:18:36.417Z,20.11
2019-03-23T15:21:06.374Z,19.91
2019-03-23T15:23:36.327Z,19.91
2019-03-23T15:26:06.323Z,19.49
2019-03-23T15:28:36.433Z,19.81
2019-03-23T15:31:06.972Z,19.53
2019-03-23T15:33:37.010Z,19.59
2019-03-23T15:36:07.165Z,19.43
2019-03-23T15:38:37.132Z,19.39
2019-03-23T15:41:07.378Z,19.39
2019-03-23T15:43:37.397Z,19.30
2019-03-23T15:46:07.454Z,19.28
2019-03-23T15:48:37.492Z,19.30
2019-03-23T15:51:07.616Z,19.53
2019-03-23T15:53:37.654Z,19.31
2019-03-23T15:56:07.885Z,19.26
2019-03-23T15:58:37.910Z,19.33
2019-03-23T16:01:07.906Z,19.30
2019-03-23T16:03:37.864Z,19.39
2019-03-23T16:06:07.917Z,19.19
2019-03-23T16:08:37.864Z,19.16
2019-03-23T16:11:07.939Z,19.21
2019-03-23T16:13:37.981Z,19.21
2019-03-23T16:16:07.965Z,19.27
2019-03-23T16:18:37.951Z,19.09
2019-03-23T16:21:07.921Z,18.93
2019-03-23T16:23:37.856Z,18.86
2019-03-23T16:26:07.952Z,18.96
2019-03-23T16:28:38.006Z,18.85
2019-03-23T16:31:08.004Z,18.80
2019-03-23T16:33:37.972Z,18.81
2019-03-23T16:36:07.920Z,18.88
2019-03-23T16:38:37.866Z,18.73
2019-03-23T16:41:07.938Z,18.49
2019-03-23T16:43:38.150Z,18.52
2019-03-23T16:46:08.213Z,18.51
2019-03-23T16:48:38.308Z,18.58
2019-03-23T16:51:08.351Z,18.48
2019-03-23T16:53:38.407Z,18.36
2019-03-23T16:56:08.544Z,18.33
2019-03-23T16:58:38.572Z,18.29
2019-03-23T17:01:08.821Z,18.39
2019-03-23T17:03:39.125Z,18.42
2019-03-23T17:06:09.281Z,18.21
2019-03-23T17:08:39.370Z,18.08
2019-03-23T17:11:09.563Z,18.08
2019-03-23T17:13:39.640Z,18.01
2019-03-23T17:16:09.708Z,18.07
2019-03-23T17:18:39.952Z,17.87
2019-03-23T17:21:10.222Z,17.87
2019-03-23T17:23:40.304Z,17.88
2019-03-23T17:26:10.224Z,17.80
2019-03-23T17:28:40.356Z,17.85
2019-03-23T17:31:10.266Z,17.62
2019-03-23T17:33:40.351Z,17.57
2019-03-23T17:36:10.516Z,17.48
2019-03-23T17:38:40.529Z,17.48
2019-03-23T17:41:10.630Z,17.34
2019-03-23T17:43:41.035Z,17.35
2019-03-23T17:46:10.915Z,17.37
2019-03-23T17:48:42.833Z,17.26
2019-03-23T17:51:12.982Z,17.31
2019-03-23T17:53:43.192Z,17.15
2019-03-23T17:56:13.230Z,17.08
2019-03-23T17:58:43.224Z,17.01
2019-03-23T18:01:19.562Z,17.08
2019-03-23T18:03:48.265Z,16.97
2019-03-23T18:06:18.386Z,16.85
2019-03-23T18:08:48.435Z,16.85
2019-03-23T18:11:18.408Z,16.77
2019-03-23T18:13:48.640Z,16.78
2019-03-23T18:16:18.676Z,16.78
2019-03-23T18:18:48.808Z,16.71
2019-03-23T18:21:18.931Z,16.79
2019-03-23T18:23:48.906Z,16.76
2019-03-23T18:26:18.822Z,16.64
2019-03-23T18:28:49.003Z,16.64
2019-03-23T18:31:19.000Z,16.47
2019-03-23T18:33:49.214Z,16.51
2019-03-23T18:36:19.269Z,16.31
2019-03-23T18:38:49.176Z,16.20
2019-03-23T18:41:19.253Z,16.15
2019-03-23T18:43:49.671Z,16.20
2019-03-23T18:46:19.582Z,16.21
2019-03-23T18:48:49.611Z,15.88
2019-03-23T18:51:19.651Z,15.78
2019-03-23T18:53:49.567Z,15.66
2019-03-23T18:56:19.655Z,15.56
2019-03-23T18:58:49.688Z,15.44
2019-03-23T19:01:19.711Z,15.41
2019-03-23T19:03:49.654Z,15.29
2019-03-23T19:06:19.763Z,15.15
2019-03-23T19:08:50.484Z,15.09
2019-03-23T19:11:20.469Z,15.05
2019-03-23T19:13:50.398Z,15.01
2019-03-23T19:16:20.453Z,14.88
2019-03-23T19:18:50.569Z,14.72
2019-03-23T19:21:20.683Z,14.68
2019-03-23T19:23:50.703Z,14.62
2019-03-23T19:26:20.948Z,14.55
2019-03-23T19:28:51.013Z,14.47
2019-03-23T19:31:21.072Z,14.39
2019-03-23T19:33:51.198Z,14.30
2019-03-23T19:36:21.191Z,14.21
2019-03-23T19:38:51.224Z,14.07
2019-03-23T19:41:21.436Z,13.92
2019-03-23T19:43:52.012Z,13.86
2019-03-23T19:46:22.242Z,13.83
2019-03-23T19:48:52.395Z,13.70
2019-03-23T19:51:22.452Z,13.63
2019-03-23T19:53:52.410Z,13.52
2019-03-23T19:56:22.386Z,13.45
2019-03-23T19:58:52.385Z,13.30
2019-03-23T20:01:22.664Z,13.27
2019-03-23T20:03:53.314Z,13.26
2019-03-23T20:06:23.214Z,13.17
2019-03-23T20:08:53.938Z,13.13
2019-03-23T20:11:23.979Z,13.12
2019-03-23T20:13:58.672Z,13.08
2019-03-23T20:16:26.283Z,13.04
2019-03-23T20:18:56.320Z,12.97
2019-03-23T20:21:26.776Z,12.89
2019-03-23T20:23:56.746Z,12.81
2019-03-23T20:26:26.898Z,12.75
2019-03-23T20:28:56.883Z,12.71
2019-03-23T20:31:27.118Z,12.61
2019-03-23T20:33:57.119Z,12.55
2019-03-23T20:36:27.192Z,12.49
2019-03-23T20:38:57.239Z,12.46
2019-03-23T20:41:27.578Z,12.38
2019-03-23T20:43:57.709Z,12.33
2019-03-23T20:46:27.850Z,12.28
2019-03-23T20:48:59.073Z,12.20
2019-03-23T20:51:29.527Z,12.05
2019-03-23T20:53:59.640Z,11.82
2019-03-23T20:56:29.590Z,11.58
2019-03-23T20:58:59.588Z,11.33
2019-03-23T21:01:29.513Z,11.45
2019-03-23T21:03:59.702Z,11.51
2019-03-23T21:06:29.764Z,11.45
2019-03-23T21:08:59.800Z,11.54
2019-03-23T21:11:29.949Z,11.55
2019-03-23T21:14:00.001Z,11.58
2019-03-23T21:16:30.195Z,11.64
2019-03-23T21:19:00.169Z,11.69
2019-03-23T21:21:32.428Z,11.75
2019-03-23T21:24:02.386Z,11.86
2019-03-23T21:26:32.712Z,11.84
2019-03-23T21:29:02.680Z,11.84
2019-03-23T21:31:34.215Z,11.65
2019-03-23T21:34:04.338Z,11.69
2019-03-23T21:36:34.532Z,11.51
2019-03-23T21:39:06.098Z,11.54
2019-03-23T21:41:36.413Z,11.52
2019-03-23T21:44:06.619Z,11.45
2019-03-23T21:46:36.765Z,11.30
2019-03-23T21:49:06.979Z,11.31
2019-03-23T21:51:37.050Z,11.35
2019-03-23T21:54:06.994Z,11.35
2019-03-23T21:56:37.085Z,11.31
2019-03-23T21:59:07.351Z,11.31
2019-03-23T22:01:37.786Z,11.32
2019-03-23T22:04:07.852Z,11.25
2019-03-23T22:06:37.832Z,11.36
2019-03-23T22:09:08.534Z,11.41
2019-03-23T22:11:38.563Z,11.49
2019-03-23T22:14:08.654Z,11.70
2019-03-23T22:16:38.672Z,11.55
2019-03-23T22:19:08.753Z,11.45
2019-03-23T22:21:38.855Z,11.34
2019-03-23T22:24:08.967Z,11.25
2019-03-23T22:26:38.915Z,11.14
2019-03-23T22:29:09.062Z,11.05
2019-03-23T22:31:39.237Z,11.09
2019-03-23T22:34:09.818Z,11.07
2019-03-23T22:36:39.771Z,11.11
2019-03-23T22:39:09.755Z,11.05
2019-03-23T22:41:39.762Z,11.03
2019-03-23T22:44:09.707Z,11.04
2019-03-23T22:46:39.847Z,11.02
2019-03-23T22:49:09.861Z,11.04
2019-03-23T22:51:40.263Z,11.09
2019-03-23T22:54:10.314Z,10.99
2019-03-23T22:56:40.330Z,10.99
2019-03-23T22:59:10.322Z,10.97
2019-03-23T23:01:40.637Z,10.84
2019-03-23T23:04:10.798Z,10.86
2019-03-23T23:06:40.837Z,10.77
2019-03-23T23:09:11.534Z,10.67
2019-03-23T23:11:41.568Z,10.50
2019-03-23T23:14:11.501Z,10.71
2019-03-23T23:16:41.459Z,10.67
2019-03-23T23:19:11.416Z,10.60
2019-03-23T23:21:41.657Z,10.51
2019-03-23T23:24:11.782Z,10.55
2019-03-23T23:26:42.020Z,10.41
2019-03-23T23:29:12.042Z,10.45
2019-03-23T23:31:42.305Z,10.57
2019-03-23T23:34:12.451Z,10.56
2019-03-23T23:36:42.676Z,10.45
2019-03-23T23:39:12.934Z,10.39
2019-03-23T23:41:42.977Z,10.32
2019-03-23T23:44:13.157Z,10.30
2019-03-23T23:46:43.164Z,10.26
2019-03-23T23:49:13.480Z,10.28
2019-03-23T23:51:50.043Z,10.27
2019-03-23T23:54:15.450Z,10.25
2019-03-23T23:56:45.685Z,10.34
2019-03-23T23:59:16.107Z,10.26
